Time;durP1;ratioP1;P1;durP2;ratioP2;P2;SDS_P1;SDS_P2;PMS_P1;PMS_P2;Temp;Humidity;BMP_temperature;BMP_pressure;BME280_temperature;BME280_humidity;BME280_pressure;Samples;Min_cycle;Max_cycle;Signal;HPM_P1;HPM_P2
2022/09/05 00:01:24;;;;;;;7.57;3.30;;;;;;;;;;5060436;28;20211;-64
2022/09/05 00:03:59;;;;;;;7.17;2.57;;;;;;;;;;5060173;28;20227;-64
2022/09/05 00:06:51;;;;;;;3.80;2.30;;;;;;;;;;5060616;28;20302;-64
2022/09/05 00:09:24;;;;;;;3.07;2.27;;;;;;;;;;5059869;28;20291;-64
2022/09/05 00:11:58;;;;;;;5.80;3.03;;;;;;;;;;5059926;28;20291;-64
2022/09/05 00:14:37;;;;;;;6.63;3.20;;;;;;;;;;5060221;28;20230;-64
2022/09/05 00:17:30;;;;;;;9.17;2.90;;;;;;;;;;5060070;28;20290;-64
2022/09/05 00:20:23;;;;;;;7.53;2.50;;;;;;;;;;5059402;28;20202;-64
2022/09/05 00:23:14;;;;;;;6.70;2.90;;;;;;;;;;5057682;28;20230;-64
2022/09/05 00:26:12;;;;;;;4.40;2.80;;;;;;;;;;5058206;28;20269;-64
2022/09/05 00:28:44;;;;;;;8.83;2.93;;;;;;;;;;5058018;28;20206;-64
2022/09/05 00:31:32;;;;;;;5.03;2.53;;;;;;;;;;5058217;28;20205;-64
2022/09/05 00:34:28;;;;;;;5.07;2.70;;;;;;;;;;5058100;28;20234;-64
2022/09/05 00:37:25;;;;;;;5.50;2.63;;;;;;;;;;5049252;28;20237;-64
2022/09/05 00:40:09;;;;;;;3.90;3.00;;;;;;;;;;5059484;28;20620;-64
2022/09/05 00:42:47;;;;;;;6.20;3.07;;;;;;;;;;5059864;28;20266;-64
2022/09/05 00:45:17;;;;;;;7.17;2.77;;;;;;;;;;5053475;28;20303;-64
2022/09/05 00:47:48;;;;;;;3.23;2.77;;;;;;;;;;5059887;28;20203;-64
2022/09/05 00:50:19;;;;;;;5.87;2.80;;;;;;;;;;5059553;28;20214;-64
2022/09/05 00:52:56;;;;;;;6.53;2.73;;;;;;;;;;5059507;28;20207;-64
2022/09/05 00:55:39;;;;;;;5.40;3.73;;;;;;;;;;5059295;28;20297;-64
2022/09/05 00:58:27;;;;;;;10.23;2.77;;;;;;;;;;5059442;28;20597;-64
2022/09/05 01:01:06;;;;;;;7.20;2.60;;;;;;;;;;5059296;28;20210;-64
2022/09/05 01:03:53;;;;;;;9.40;3.70;;;;;;;;;;5059172;28;20243;-64
2022/09/05 01:06:27;;;;;;;9.10;2.70;;;;;;;;;;5059178;28;20217;-64
2022/09/05 01:09:13;;;;;;;6.43;2.90;;;;;;;;;;5059264;28;20231;-64
2022/09/05 01:11:48;;;;;;;8.83;2.60;;;;;;;;;;5049080;28;20264;-64
2022/09/05 01:14:27;;;;;;;8.13;2.50;;;;;;;;;;5059102;28;20282;-64
2022/09/05 01:17:01;;;;;;;6.70;3.13;;;;;;;;;;5059415;28;20209;-64
2022/09/05 01:19:33;;;;;;;5.03;2.47;;;;;;;;;;5058876;28;20682;-64
2022/09/05 01:22:17;;;;;;;3.57;2.50;;;;;;;;;;5059222;28;20263;-64
2022/09/05 01:24:53;;;;;;;5.30;2.80;;;;;;;;;;5058517;28;20655;-64
2022/09/05 01:27:40;;;;;;;8.90;2.90;;;;;;;;;;5058808;28;20212;-64
2022/09/05 01:30:33;;;;;;;8.57;2.60;;;;;;;;;;5058823;28;20293;-64
2022/09/05 01:33:06;;;;;;;6.23;2.93;;;;;;;;;;5058662;28;20218;-64
2022/09/05 01:35:58;;;;;;;3.53;1.93;;;;;;;;;;5058618;28;20263;-64
2022/09/05 01:38:35;;;;;;;6.37;2.53;;;;;;;;;;5045435;28;20244;-64
2022/09/05 01:41:10;;;;;;;6.03;2.60;;;;;;;;;;5058745;28;20207;-64
2022/09/05 01:43:56;;;;;;;8.33;3.07;;;;;;;;;;5058687;28;20225;-64
2022/09/05 01:46:30;;;;;;;5.13;2.37;;;;;;;;;;5052608;28;20213;-64
2022/09/05 01:49:01;;;;;;;7.17;2.37;;;;;;;;;;5058422;28;20205;-64
2022/09/05 01:51:34;;;;;;;10.47;2.97;;;;;;;;;;5058342;28;20271;-64
2022/09/05 01:54:14;;;;;;;5.57;2.50;;;;;;;;;;5058411;28;20224;-64
2022/09/05 01:57:00;;;;;;;7.97;2.60;;;;;;;;;;5058184;28;20624;-64
2022/09/05 01:59:37;;;;;;;4.07;2.83;;;;;;;;;;5058184;28;20255;-64
2022/09/05 02:02:12;;;;;;;3.93;2.60;;;;;;;;;;5058175;28;20617;-64
2022/09/05 02:05:02;;;;;;;5.50;2.80;;;;;;;;;;5058012;28;20292;-64
2022/09/05 02:07:37;;;;;;;7.27;2.93;;;;;;;;;;5058007;28;20668;-63
2022/09/05 02:10:18;;;;;;;7.60;3.30;;;;;;;;;;5057911;28;20203;-64
2022/09/05 02:12:48;;;;;;;7.90;3.63;;;;;;;;;;5058317;28;20260;-63
2022/09/05 02:15:37;;;;;;;4.57;2.80;;;;;;;;;;5058313;28;20214;-64
2022/09/05 02:18:06;;;;;;;4.13;2.53;;;;;;;;;;5058084;28;20237;-64
2022/09/05 02:20:43;;;;;;;5.97;3.13;;;;;;;;;;5057808;28;20577;-64
2022/09/05 02:23:14;;;;;;;3.07;2.80;;;;;;;;;;5057605;28;20261;-63
2022/09/05 02:26:05;;;;;;;9.60;3.40;;;;;;;;;;5057603;28;20270;-64
2022/09/05 02:28:37;;;;;;;6.33;2.80;;;;;;;;;;5057840;28;20264;-64
2022/09/05 02:31:11;;;;;;;8.97;2.80;;;;;;;;;;5057933;28;20213;-64
2022/09/05 02:33:50;;;;;;;9.43;3.20;;;;;;;;;;5057947;28;20228;-64
2022/09/05 02:36:32;;;;;;;6.37;3.40;;;;;;;;;;5058007;28;20239;-64
2022/09/05 02:39:02;;;;;;;6.23;2.93;;;;;;;;;;5057291;28;20710;-64
2022/09/05 02:41:55;;;;;;;7.53;3.00;;;;;;;;;;5057890;28;20301;-64
2022/09/05 02:44:51;;;;;;;7.83;2.90;;;;;;;;;;5055197;28;20251;-64
2022/09/05 02:47:43;;;;;;;10.37;2.80;;;;;;;;;;5045601;28;20234;-64
2022/09/05 02:50:22;;;;;;;5.00;2.40;;;;;;;;;;5057532;28;20210;-64
2022/09/05 02:53:12;;;;;;;6.60;3.57;;;;;;;;;;5057158;28;20637;-64
2022/09/05 02:56:12;;;;;;;8.27;2.90;;;;;;;;;;5057671;28;20310;-64
2022/09/05 02:59:03;;;;;;;5.07;2.80;;;;;;;;;;5057507;28;20320;-64
2022/09/05 03:01:51;;;;;;;5.03;2.63;;;;;;;;;;5053412;28;20215;-64
2022/09/05 03:04:27;;;;;;;5.50;2.80;;;;;;;;;;5057349;28;20225;-64
2022/09/05 03:07:02;;;;;;;9.03;3.37;;;;;;;;;;5057562;28;20206;-64
2022/09/05 03:09:37;;;;;;;5.57;2.83;;;;;;;;;;5057036;28;20209;-64
2022/09/05 03:12:20;;;;;;;4.90;2.90;;;;;;;;;;5057268;28;20213;-64
2022/09/05 03:15:16;;;;;;;11.13;3.13;;;;;;;;;;5057146;28;20236;-64
2022/09/05 03:18:10;;;;;;;11.10;2.90;;;;;;;;;;5057227;28;20207;-64
2022/09/05 03:21:06;;;;;;;6.77;2.77;;;;;;;;;;5057428;28;20211;-64
2022/09/05 03:24:03;;;;;;;5.70;3.00;;;;;;;;;;5057239;28;20324;-64
2022/09/05 03:26:48;;;;;;;9.53;2.73;;;;;;;;;;5045507;28;20658;-64
2022/09/05 03:29:34;;;;;;;6.83;2.80;;;;;;;;;;5057772;28;20483;-63
2022/09/05 03:32:20;;;;;;;8.83;2.97;;;;;;;;;;5054046;28;20202;-63
2022/09/05 03:35:03;;;;;;;3.57;2.67;;;;;;;;;;5059775;28;20728;-64
2022/09/05 03:37:50;;;;;;;3.87;2.43;;;;;;;;;;5050221;28;20289;-63
2022/09/05 03:40:38;;;;;;;5.67;2.80;;;;;;;;;;5060006;28;20693;-63
2022/09/05 03:43:37;;;;;;;6.17;2.63;;;;;;;;;;5060979;28;20243;-64
2022/09/05 03:46:17;;;;;;;5.33;2.70;;;;;;;;;;4990398;28;20621;-64
2022/09/05 03:49:02;;;;;;;4.23;2.77;;;;;;;;;;5051441;28;20254;-64
2022/09/05 03:51:55;;;;;;;6.43;2.57;;;;;;;;;;5064485;28;20229;-64
2022/09/05 03:54:56;;;;;;;7.57;2.40;;;;;;;;;;5056921;28;20274;-64
2022/09/05 03:58:05;;;;;;;5.70;2.60;;;;;;;;;;5060115;28;20293;-64
2022/09/05 04:00:58;;;;;;;6.73;2.70;;;;;;;;;;5062496;28;20278;-64
2022/09/05 04:03:51;;;;;;;11.90;3.40;;;;;;;;;;5062861;28;20288;-64
2022/09/05 04:06:44;;;;;;;6.53;2.63;;;;;;;;;;5063718;28;20740;-64
2022/09/05 04:09:37;;;;;;;5.77;2.60;;;;;;;;;;5060781;28;20206;-64
2022/09/05 04:12:18;;;;;;;7.90;2.40;;;;;;;;;;5059408;28;20596;-64
2022/09/05 04:14:48;;;;;;;5.73;2.60;;;;;;;;;;5059916;28;20234;-63
2022/09/05 04:17:23;;;;;;;7.43;2.60;;;;;;;;;;5060393;28;20210;-64
2022/09/05 04:19:55;;;;;;;3.80;2.37;;;;;;;;;;5060108;28;20317;-64
2022/09/05 04:22:28;;;;;;;9.17;3.00;;;;;;;;;;5060285;28;20239;-64
2022/09/05 04:24:59;;;;;;;3.97;2.60;;;;;;;;;;5058989;28;20281;-64
2022/09/05 04:27:30;;;;;;;7.10;3.00;;;;;;;;;;5060060;28;20640;-64
2022/09/05 04:30:01;;;;;;;6.27;2.70;;;;;;;;;;5059934;28;20736;-64
2022/09/05 04:32:53;;;;;;;8.07;3.10;;;;;;;;;;5059802;28;20812;-64
2022/09/05 04:35:33;;;;;;;5.73;2.63;;;;;;;;;;5059913;28;20292;-64
2022/09/05 04:38:05;;;;;;;7.10;2.57;;;;;;;;;;5059534;28;20213;-64
2022/09/05 04:40:51;;;;;;;12.23;3.53;;;;;;;;;;5060004;28;20282;-64
2022/09/05 04:43:23;;;;;;;7.37;2.53;;;;;;;;;;5059561;28;20228;-64
2022/09/05 04:45:53;;;;;;;6.17;3.10;;;;;;;;;;5053248;28;20257;-64
2022/09/05 04:48:24;;;;;;;4.07;3.20;;;;;;;;;;5059969;28;20202;-64
2022/09/05 04:51:08;;;;;;;3.83;3.17;;;;;;;;;;5059574;28;20697;-64
2022/09/05 04:53:43;;;;;;;6.97;3.30;;;;;;;;;;5058732;28;20724;-63
2022/09/05 04:56:14;;;;;;;6.83;3.00;;;;;;;;;;5067530;28;20205;-64
2022/09/05 04:58:47;;;;;;;4.43;2.90;;;;;;;;;;5058190;28;20262;-64
2022/09/05 05:01:39;;;;;;;7.63;3.20;;;;;;;;;;5068554;28;20199;-64
2022/09/05 05:04:27;;;;;;;11.47;3.23;;;;;;;;;;5059149;28;20296;-64
2022/09/05 05:07:20;;;;;;;5.00;2.63;;;;;;;;;;5059357;28;20277;-64
2022/09/05 05:09:49;;;;;;;9.67;3.53;;;;;;;;;;5058898;28;20274;-64
2022/09/05 05:12:43;;;;;;;11.63;3.27;;;;;;;;;;5058768;28;20295;-64
2022/09/05 05:15:32;;;;;;;7.20;3.87;;;;;;;;;;5044303;28;20267;-64
2022/09/05 05:18:23;;;;;;;5.57;2.90;;;;;;;;;;5058779;28;20239;-63
2022/09/05 05:21:14;;;;;;;8.67;3.30;;;;;;;;;;5058708;28;20232;-64
2022/09/05 05:23:46;;;;;;;5.53;3.33;;;;;;;;;;5058808;28;20223;-63
2022/09/05 05:26:21;;;;;;;5.23;3.40;;;;;;;;;;5058493;28;20655;-65
2022/09/05 05:28:52;;;;;;;8.40;3.17;;;;;;;;;;5072451;28;20719;-66
2022/09/05 05:31:22;;;;;;;5.73;3.27;;;;;;;;;;5066493;28;20576;-66
2022/09/05 05:33:51;;;;;;;6.03;3.00;;;;;;;;;;5049697;28;20215;-65
2022/09/05 05:36:22;;;;;;;7.87;3.50;;;;;;;;;;5058267;28;20575;-66
2022/09/05 05:38:54;;;;;;;9.77;4.17;;;;;;;;;;5057983;28;20213;-65
2022/09/05 05:41:24;;;;;;;7.80;3.20;;;;;;;;;;5058120;28;20229;-65
2022/09/05 05:43:52;;;;;;;8.30;3.17;;;;;;;;;;5058337;28;20233;-65
2022/09/05 05:46:27;;;;;;;7.27;3.00;;;;;;;;;;5051940;28;20241;-65
2022/09/05 05:49:03;;;;;;;11.40;4.10;;;;;;;;;;5058490;28;20288;-66
2022/09/05 05:51:38;;;;;;;10.23;3.90;;;;;;;;;;5060322;28;20233;-66
2022/09/05 05:54:32;;;;;;;8.83;3.50;;;;;;;;;;5057568;28;20227;-65
2022/09/05 05:57:14;;;;;;;7.73;3.90;;;;;;;;;;5074166;28;20213;-65
2022/09/05 05:59:57;;;;;;;6.63;3.43;;;;;;;;;;5073598;28;20550;-66
2022/09/05 06:02:47;;;;;;;6.73;3.47;;;;;;;;;;5046582;28;20205;-66
2022/09/05 06:05:48;;;;;;;7.70;3.63;;;;;;;;;;5057458;28;20299;-67
2022/09/05 06:08:36;;;;;;;12.23;3.30;;;;;;;;;;5054244;28;20217;-66
2022/09/05 06:11:40;;;;;;;5.30;3.07;;;;;;;;;;5057900;28;20210;-67
2022/09/05 06:14:47;;;;;;;6.90;4.10;;;;;;;;;;5057491;28;20230;-67
2022/09/05 06:17:48;;;;;;;8.50;3.37;;;;;;;;;;5057268;28;20614;-67
2022/09/05 06:20:36;;;;;;;5.73;3.40;;;;;;;;;;5058036;28;20236;-67
2022/09/05 06:23:46;;;;;;;14.53;3.87;;;;;;;;;;5050497;28;20226;-67
2022/09/05 06:26:35;;;;;;;6.83;3.13;;;;;;;;;;5057537;28;20707;-67
2022/09/05 06:29:08;;;;;;;9.33;3.77;;;;;;;;;;5023578;28;20208;-67
2022/09/05 06:31:42;;;;;;;7.50;3.30;;;;;;;;;;5057456;28;20206;-67
2022/09/05 06:34:24;;;;;;;10.97;3.67;;;;;;;;;;5057276;28;20645;-67
2022/09/05 06:37:08;;;;;;;7.67;4.10;;;;;;;;;;5057580;28;20209;-68
2022/09/05 06:39:46;;;;;;;5.97;3.30;;;;;;;;;;5056920;28;20689;-67
2022/09/05 06:42:19;;;;;;;6.83;3.37;;;;;;;;;;5057184;28;20265;-67
2022/09/05 06:45:31;;;;;;;6.70;3.93;;;;;;;;;;5051359;28;20242;-67
2022/09/05 06:48:03;;;;;;;7.13;3.40;;;;;;;;;;5047577;28;20232;-67
2022/09/05 06:50:38;;;;;;;10.13;5.37;;;;;;;;;;5057253;28;20600;-67
2022/09/05 06:53:53;;;;;;;8.83;3.73;;;;;;;;;;5056970;28;20312;-67
2022/09/05 06:56:31;;;;;;;7.07;3.10;;;;;;;;;;5016243;28;20209;-67
2022/09/05 06:59:17;;;;;;;10.17;3.40;;;;;;;;;;5044164;28;20209;-68
2022/09/05 07:01:49;;;;;;;8.00;3.17;;;;;;;;;;5053388;28;20243;-66
2022/09/05 07:04:34;;;;;;;9.53;3.60;;;;;;;;;;5057175;28;20712;-67
2022/09/05 07:07:23;;;;;;;8.83;3.00;;;;;;;;;;5058085;28;20208;-67
2022/09/05 07:09:58;;;;;;;9.57;3.53;;;;;;;;;;5061293;28;20210;-68
2022/09/05 07:12:28;;;;;;;5.07;3.17;;;;;;;;;;5061301;28;20198;-67
2022/09/05 07:15:00;;;;;;;8.00;3.63;;;;;;;;;;5060557;28;20239;-68
2022/09/05 07:17:41;;;;;;;11.17;3.57;;;;;;;;;;5061114;28;20213;-67
2022/09/05 07:20:34;;;;;;;7.77;3.40;;;;;;;;;;5061070;28;20652;-68
2022/09/05 07:23:41;;;;;;;9.23;3.03;;;;;;;;;;5060871;28;20238;-68
2022/09/05 07:26:32;;;;;;;5.20;2.90;;;;;;;;;;5047569;28;20207;-68
2022/09/05 07:29:21;;;;;;;8.53;3.20;;;;;;;;;;5052040;28;20650;-66
2022/09/05 07:31:52;;;;;;;6.87;3.03;;;;;;;;;;5053420;28;20203;-66
2022/09/05 07:34:24;;;;;;;10.57;2.70;;;;;;;;;;5060661;28;20227;-66
2022/09/05 07:36:54;;;;;;;8.50;2.73;;;;;;;;;;5061111;28;20208;-66
2022/09/05 07:39:44;;;;;;;4.90;2.47;;;;;;;;;;5060812;28;20289;-67
2022/09/05 07:42:14;;;;;;;6.43;2.83;;;;;;;;;;5060478;28;20664;-67
2022/09/05 07:44:46;;;;;;;6.70;2.67;;;;;;;;;;5057945;28;20692;-66
2022/09/05 07:47:19;;;;;;;5.67;2.73;;;;;;;;;;5056320;28;20211;-66
2022/09/05 07:49:50;;;;;;;8.30;2.80;;;;;;;;;;5060535;28;20217;-66
2022/09/05 07:52:39;;;;;;;7.07;2.60;;;;;;;;;;5060198;28;20971;-67
2022/09/05 07:55:29;;;;;;;11.50;2.70;;;;;;;;;;5060134;28;20216;-65
2022/09/05 07:58:20;;;;;;;5.50;2.60;;;;;;;;;;5060233;28;20609;-65
2022/09/05 08:00:51;;;;;;;5.90;2.50;;;;;;;;;;5056734;28;20208;-66
2022/09/05 08:03:24;;;;;;;7.80;2.93;;;;;;;;;;5048105;28;20664;-61
2022/09/05 08:05:56;;;;;;;5.10;2.40;;;;;;;;;;5058710;28;20662;-61
2022/09/05 08:08:28;;;;;;;10.23;2.50;;;;;;;;;;5060046;28;20239;-62
2022/09/05 08:11:00;;;;;;;6.03;2.63;;;;;;;;;;5059967;28;20685;-61
2022/09/05 08:13:56;;;;;;;3.87;2.70;;;;;;;;;;5060083;28;20227;-62
2022/09/05 08:16:44;;;;;;;5.10;2.47;;;;;;;;;;5059819;28;20256;-62
2022/09/05 08:19:30;;;;;;;4.47;2.57;;;;;;;;;;5059022;28;20270;-62
2022/09/05 08:22:02;;;;;;;8.10;2.47;;;;;;;;;;5052292;28;20230;-62
2022/09/05 08:24:35;;;;;;;5.73;2.20;;;;;;;;;;5059799;28;20223;-62
2022/09/05 08:27:04;;;;;;;8.37;3.00;;;;;;;;;;5059670;28;20239;-62
2022/09/05 08:29:43;;;;;;;9.00;2.57;;;;;;;;;;5059180;28;20215;-61
2022/09/05 08:32:12;;;;;;;4.80;2.37;;;;;;;;;;5059899;28;20708;-62
2022/09/05 08:34:43;;;;;;;8.47;2.53;;;;;;;;;;5072809;28;20225;-62
2022/09/05 08:37:17;;;;;;;8.90;2.23;;;;;;;;;;5077852;28;20203;-61
2022/09/05 08:39:50;;;;;;;7.80;2.43;;;;;;;;;;5058703;28;20243;-62
2022/09/05 08:42:42;;;;;;;6.73;1.97;;;;;;;;;;5057625;28;20283;-61
2022/09/05 08:45:27;;;;;;;5.97;2.43;;;;;;;;;;5051549;28;20640;-61
2022/09/05 08:48:21;;;;;;;4.47;2.10;;;;;;;;;;5056046;28;20234;-62
2022/09/05 08:50:58;;;;;;;5.90;2.73;;;;;;;;;;5057241;28;20233;-63
2022/09/05 08:53:34;;;;;;;6.70;2.20;;;;;;;;;;5058904;28;20591;-62
2022/09/05 08:56:17;;;;;;;8.93;2.30;;;;;;;;;;5058330;28;20198;-62
2022/09/05 08:58:57;;;;;;;5.43;2.43;;;;;;;;;;5059329;28;20549;-63
2022/09/05 09:01:55;;;;;;;5.53;2.50;;;;;;;;;;5055587;28;20320;-62
2022/09/05 09:04:45;;;;;;;11.13;3.10;;;;;;;;;;5058972;28;20282;-62
2022/09/05 09:07:32;;;;;;;4.73;2.50;;;;;;;;;;5059020;28;20239;-62
2022/09/05 09:10:27;;;;;;;6.10;2.10;;;;;;;;;;5059299;28;20293;-62
2022/09/05 09:13:18;;;;;;;7.53;2.60;;;;;;;;;;5056616;28;20190;-62
2022/09/05 09:15:52;;;;;;;4.87;2.20;;;;;;;;;;5059051;28;20206;-62
2022/09/05 09:18:21;;;;;;;2.80;2.07;;;;;;;;;;5058919;28;20624;-62
2022/09/05 09:20:52;;;;;;;3.33;2.13;;;;;;;;;;5058929;28;20277;-61
2022/09/05 09:23:32;;;;;;;3.47;2.03;;;;;;;;;;5058568;28;20246;-62
2022/09/05 09:26:09;;;;;;;3.70;1.80;;;;;;;;;;5058760;28;20588;-62
2022/09/05 09:28:42;;;;;;;4.33;1.97;;;;;;;;;;5053179;28;20217;-62
2022/09/05 09:31:32;;;;;;;5.20;2.03;;;;;;;;;;5076572;28;20231;-62
2022/09/05 09:34:09;;;;;;;4.80;1.97;;;;;;;;;;5077191;28;20225;-62
2022/09/05 09:37:00;;;;;;;6.43;2.00;;;;;;;;;;5078950;28;20259;-62
2022/09/05 09:39:32;;;;;;;3.22;1.90;;;;;;;;;;5078456;28;20297;-61
2022/09/05 09:42:17;;;;;;;4.57;2.17;;;;;;;;;;5078315;28;20682;-61
2022/09/05 09:45:21;;;;;;;4.40;2.00;;;;;;;;;;5061313;28;20273;-61
2022/09/05 09:48:14;;;;;;;5.03;2.15;;;;;;;;;;5042085;28;20210;-61
2022/09/05 09:50:57;;;;;;;5.23;1.87;;;;;;;;;;5058232;28;20639;-63
2022/09/05 09:53:42;;;;;;;2.88;1.50;;;;;;;;;;5057886;28;20247;-62
2022/09/05 09:56:24;;;;;;;6.47;2.10;;;;;;;;;;5058121;28;20668;-64
2022/09/05 09:59:25;;;;;;;6.00;1.93;;;;;;;;;;5057975;28;20199;-66
2022/09/05 10:02:01;;;;;;;9.17;5.20;;;;;;;;;;5016205;28;20742;-62
2022/09/05 10:04:58;;;;;;;6.33;2.80;;;;;;;;;;5013519;28;20707;-63
2022/09/05 10:07:57;;;;;;;4.20;2.28;;;;;;;;;;5047304;28;20301;-63
2022/09/05 10:11:18;;;;;;;6.90;2.80;;;;;;;;;;5058039;28;20270;-63
2022/09/05 10:14:24;;;;;;;4.63;2.45;;;;;;;;;;5057851;28;20254;-63
2022/09/05 10:17:28;;;;;;;3.35;1.75;;;;;;;;;;5057589;28;20689;-63
2022/09/05 10:20:05;;;;;;;7.25;2.17;;;;;;;;;;5058072;28;20285;-63
2022/09/05 10:22:50;;;;;;;5.35;2.88;;;;;;;;;;5057702;28;20232;-64
2022/09/05 10:25:25;;;;;;;3.17;2.05;;;;;;;;;;5048271;28;20697;-63
2022/09/05 10:28:06;;;;;;;6.05;2.08;;;;;;;;;;5057936;28;20214;-63
2022/09/05 10:30:42;;;;;;;6.05;2.30;;;;;;;;;;5057908;28;20265;-63
2022/09/05 10:33:39;;;;;;;4.93;3.00;;;;;;;;;;5057720;28;20301;-64
2022/09/05 10:36:27;;;;;;;11.68;2.92;;;;;;;;;;5057739;28;20282;-63
2022/09/05 10:39:02;;;;;;;7.45;2.45;;;;;;;;;;5057348;28;20205;-63
2022/09/05 10:41:42;;;;;;;2.95;1.75;;;;;;;;;;5057291;28;20272;-62
2022/09/05 10:44:13;;;;;;;8.43;3.05;;;;;;;;;;5056870;28;20222;-62
2022/09/05 10:46:51;;;;;;;8.32;2.10;;;;;;;;;;5047400;28;20237;-62
2022/09/05 10:49:23;;;;;;;5.20;2.30;;;;;;;;;;5044961;28;20217;-62
2022/09/05 10:51:59;;;;;;;8.38;2.00;;;;;;;;;;5056952;28;20584;-63
2022/09/05 10:54:52;;;;;;;4.85;2.08;;;;;;;;;;5057466;28;20260;-62
2022/09/05 10:57:45;;;;;;;3.75;2.08;;;;;;;;;;5057068;28;20277;-63
2022/09/05 11:00:28;;;;;;;4.90;2.05;;;;;;;;;;5058468;28;20197;-63
2022/09/05 11:03:21;;;;;;;4.30;2.00;;;;;;;;;;5057403;28;20235;-63
2022/09/05 11:05:55;;;;;;;4.60;2.17;;;;;;;;;;5055862;28;20204;-63
2022/09/05 11:08:28;;;;;;;5.00;1.77;;;;;;;;;;5056028;28;20207;-62
2022/09/05 11:11:02;;;;;;;3.55;1.88;;;;;;;;;;5055877;28;20197;-63
2022/09/05 11:13:42;;;;;;;5.63;1.98;;;;;;;;;;5055029;28;20681;-62
2022/09/05 11:16:15;;;;;;;6.20;1.95;;;;;;;;;;5056248;28;20205;-63
2022/09/05 11:18:51;;;;;;;4.72;2.15;;;;;;;;;;5053768;28;20711;-63
2022/09/05 11:21:28;;;;;;;4.93;1.95;;;;;;;;;;5056232;28;20208;-63
2022/09/05 11:23:58;;;;;;;4.10;1.80;;;;;;;;;;5055237;28;20224;-63
2022/09/05 11:26:31;;;;;;;3.45;1.63;;;;;;;;;;5057565;28;20274;-63
2022/09/05 11:29:02;;;;;;;4.53;2.47;;;;;;;;;;5056109;28;20615;-63
2022/09/05 11:31:32;;;;;;;9.57;2.20;;;;;;;;;;5057399;28;20211;-62
2022/09/05 11:34:41;;;;;;;3.35;1.90;;;;;;;;;;5072686;28;20215;-64
2022/09/05 11:37:44;;;;;;;5.63;1.80;;;;;;;;;;5076930;28;20208;-64
2022/09/05 11:40:37;;;;;;;6.63;1.70;;;;;;;;;;5077052;28;20215;-63
2022/09/05 11:43:39;;;;;;;4.80;2.20;;;;;;;;;;5076442;28;20304;-64
2022/09/05 11:46:14;;;;;;;6.45;2.28;;;;;;;;;;5022143;28;20213;-64
2022/09/05 11:49:01;;;;;;;9.10;2.67;;;;;;;;;;5056465;28;20209;-63
2022/09/05 11:51:48;;;;;;;6.80;2.28;;;;;;;;;;5056701;28;20244;-64
2022/09/05 11:54:36;;;;;;;3.42;1.70;;;;;;;;;;5054988;28;20229;-64
2022/09/05 11:57:19;;;;;;;3.83;2.20;;;;;;;;;;5058228;28;20580;-64
2022/09/05 12:00:06;;;;;;;4.70;2.20;;;;;;;;;;5061083;28;20657;-64
2022/09/05 12:03:10;;;;;;;5.75;1.95;;;;;;;;;;5049535;28;20296;-63
2022/09/05 12:06:07;;;;;;;3.05;1.65;;;;;;;;;;5050604;28;20242;-63
2022/09/05 12:08:39;;;;;;;4.00;1.83;;;;;;;;;;5051731;28;20233;-64
2022/09/05 12:11:19;;;;;;;3.17;1.55;;;;;;;;;;5054682;28;20300;-64
2022/09/05 12:13:49;;;;;;;6.35;1.73;;;;;;;;;;5060125;28;20284;-64
2022/09/05 12:16:20;;;;;;;7.85;2.03;;;;;;;;;;5060345;28;20210;-64
2022/09/05 12:19:05;;;;;;;3.40;1.88;;;;;;;;;;5058135;28;20244;-64
2022/09/05 12:21:52;;;;;;;3.40;1.80;;;;;;;;;;5049756;28;20313;-64
2022/09/05 12:24:24;;;;;;;4.38;1.73;;;;;;;;;;5057858;28;20233;-64
2022/09/05 12:27:15;;;;;;;4.78;2.17;;;;;;;;;;5057850;28;20295;-64
2022/09/05 12:30:05;;;;;;;5.72;1.48;;;;;;;;;;5054681;28;20205;-64
2022/09/05 12:32:35;;;;;;;4.18;1.73;;;;;;;;;;5059428;28;20202;-64
2022/09/05 12:35:30;;;;;;;3.97;2.05;;;;;;;;;;5053001;28;20212;-63
2022/09/05 12:38:26;;;;;;;4.28;1.67;;;;;;;;;;5063051;28;20208;-64
2022/09/05 12:41:18;;;;;;;3.83;1.75;;;;;;;;;;5057563;28;20230;-63
2022/09/05 12:44:14;;;;;;;5.72;2.20;;;;;;;;;;5059473;28;20223;-63
2022/09/05 12:47:05;;;;;;;4.00;1.80;;;;;;;;;;5057034;28;20241;-64
2022/09/05 12:49:50;;;;;;;7.45;1.85;;;;;;;;;;5049164;28;20213;-64
2022/09/05 12:52:22;;;;;;;6.32;1.65;;;;;;;;;;5046592;28;20241;-64
2022/09/05 12:54:53;;;;;;;6.00;2.85;;;;;;;;;;5056023;28;20225;-64
2022/09/05 12:57:27;;;;;;;8.05;1.77;;;;;;;;;;5059583;28;20231;-64
2022/09/05 13:00:20;;;;;;;6.90;1.85;;;;;;;;;;5059261;28;20270;-64
2022/09/05 13:03:13;;;;;;;5.22;2.00;;;;;;;;;;5059307;28;20212;-64
2022/09/05 13:06:03;;;;;;;7.30;2.30;;;;;;;;;;5058904;28;20204;-63
2022/09/05 13:08:42;;;;;;;8.20;2.00;;;;;;;;;;5058321;28;20580;-63
2022/09/05 13:11:12;;;;;;;4.72;1.80;;;;;;;;;;5051858;28;20209;-63
2022/09/05 13:14:04;;;;;;;7.35;2.70;;;;;;;;;;5058897;28;20316;-63
2022/09/05 13:16:55;;;;;;;7.32;2.92;;;;;;;;;;5059075;28;20234;-62
2022/09/05 13:19:32;;;;;;;12.13;3.10;;;;;;;;;;5059026;28;20577;-63
2022/09/05 13:22:02;;;;;;;8.48;2.80;;;;;;;;;;5058762;28;20238;-63
2022/09/05 13:24:33;;;;;;;6.53;2.17;;;;;;;;;;5058603;28;20280;-63
2022/09/05 13:27:06;;;;;;;3.92;1.75;;;;;;;;;;5058663;28;20260;-63
2022/09/05 13:29:46;;;;;;;4.15;2.10;;;;;;;;;;5058834;28;20237;-63
2022/09/05 13:32:37;;;;;;;2.40;2.08;;;;;;;;;;5058822;28;20571;-63
2022/09/05 13:35:27;;;;;;;5.20;1.98;;;;;;;;;;5058933;28;20203;-63
2022/09/05 13:38:19;;;;;;;8.93;2.50;;;;;;;;;;5058346;28;20234;-63
2022/09/05 13:41:12;;;;;;;4.40;2.35;;;;;;;;;;5058339;28;20301;-63
2022/09/05 13:43:55;;;;;;;7.88;2.10;;;;;;;;;;5053854;28;20227;-63
2022/09/05 13:46:52;;;;;;;5.28;2.00;;;;;;;;;;5058630;28;20210;-63
2022/09/05 13:49:27;;;;;;;4.65;1.98;;;;;;;;;;5058339;28;20784;-63
2022/09/05 13:52:07;;;;;;;6.65;1.77;;;;;;;;;;5058139;28;20351;-63
2022/09/05 13:54:39;;;;;;;7.45;1.80;;;;;;;;;;5058437;28;20218;-63
2022/09/05 13:57:27;;;;;;;5.40;1.90;;;;;;;;;;5058234;28;20228;-63
2022/09/05 14:00:16;;;;;;;5.03;1.60;;;;;;;;;;5058267;28;20565;-63
2022/09/05 14:03:09;;;;;;;6.75;1.85;;;;;;;;;;5046142;28;20290;-63
2022/09/05 14:06:02;;;;;;;4.38;1.75;;;;;;;;;;5057927;28;20253;-63
2022/09/05 14:09:02;;;;;;;8.40;2.17;;;;;;;;;;5057532;28;20627;-63
2022/09/05 14:11:56;;;;;;;5.57;1.92;;;;;;;;;;5053073;28;20277;-63
2022/09/05 14:14:25;;;;;;;4.97;1.58;;;;;;;;;;5057936;28;20272;-63
2022/09/05 14:17:28;;;;;;;9.00;2.42;;;;;;;;;;5057104;28;20274;-63
2022/09/05 14:23:07;;;;;;;4.13;1.60;;;;;;;;;;5057413;28;20619;-63
2022/09/05 14:25:38;;;;;;;6.95;1.98;;;;;;;;;;5057518;28;20233;-63
2022/09/05 14:28:10;;;;;;;5.18;2.53;;;;;;;;;;5052942;28;20562;-63
2022/09/05 14:30:40;;;;;;;3.95;1.52;;;;;;;;;;5057760;28;20236;-63
2022/09/05 14:33:35;;;;;;;5.43;1.67;;;;;;;;;;5057517;28;20664;-63
2022/09/05 14:36:31;;;;;;;6.60;1.85;;;;;;;;;;5057605;28;20290;-63
2022/09/05 14:39:33;;;;;;;7.70;1.88;;;;;;;;;;5057498;28;20241;-63
2022/09/05 14:42:20;;;;;;;4.30;1.52;;;;;;;;;;5057782;28;20203;-63
2022/09/05 14:45:02;;;;;;;7.40;1.85;;;;;;;;;;5047809;28;20238;-63
2022/09/05 14:47:51;;;;;;;4.38;1.98;;;;;;;;;;5057435;28;20214;-63
2022/09/05 14:50:28;;;;;;;4.78;1.60;;;;;;;;;;5057560;28;20237;-63
2022/09/05 14:53:01;;;;;;;5.65;1.83;;;;;;;;;;5057310;28;20268;-63
2022/09/05 14:55:57;;;;;;;8.88;2.38;;;;;;;;;;5057138;28;20206;-64
2022/09/05 14:58:46;;;;;;;7.03;2.38;;;;;;;;;;5057390;28;20226;-63
2022/09/05 15:01:46;;;;;;;6.50;1.67;;;;;;;;;;5052539;28;20203;-63
2022/09/05 15:04:39;;;;;;;3.30;1.70;;;;;;;;;;5044461;28;20595;-63
2022/09/05 15:07:15;;;;;;;5.38;1.80;;;;;;;;;;5057252;28;20252;-63
2022/09/05 15:09:43;;;;;;;6.63;2.05;;;;;;;;;;5057393;28;20199;-63
2022/09/05 15:12:33;;;;;;;9.35;1.90;;;;;;;;;;5056962;28;20665;-63
2022/09/05 15:15:21;;;;;;;3.75;1.63;;;;;;;;;;5057417;28;20216;-63
2022/09/05 15:17:52;;;;;;;12.50;2.50;;;;;;;;;;5057164;28;20256;-63
2022/09/05 15:20:31;;;;;;;5.65;1.58;;;;;;;;;;5057174;28;20271;-63
2022/09/05 15:22:59;;;;;;;4.00;1.77;;;;;;;;;;5056999;28;20384;-63
2022/09/05 15:25:44;;;;;;;6.07;1.70;;;;;;;;;;5044961;28;20218;-63
2022/09/05 15:28:18;;;;;;;9.20;2.00;;;;;;;;;;5057632;28;20238;-63
2022/09/05 15:30:55;;;;;;;5.38;2.08;;;;;;;;;;5061276;28;20241;-63
2022/09/05 15:33:24;;;;;;;2.53;1.50;;;;;;;;;;5060832;28;20337;-63
2022/09/05 15:35:53;;;;;;;7.90;2.25;;;;;;;;;;5061248;28;20199;-63
2022/09/05 15:38:25;;;;;;;6.55;1.80;;;;;;;;;;5060863;28;20210;-63
2022/09/05 15:41:12;;;;;;;6.32;2.15;;;;;;;;;;5061129;28;20210;-63
2022/09/05 15:43:50;;;;;;;8.75;2.40;;;;;;;;;;5061063;28;20233;-63
2022/09/05 15:46:21;;;;;;;6.13;1.90;;;;;;;;;;5060788;28;20292;-63
2022/09/05 15:48:52;;;;;;;7.15;1.95;;;;;;;;;;5061074;28;20210;-63
2022/09/05 15:51:32;;;;;;;6.38;2.20;;;;;;;;;;5060653;28;20325;-63
2022/09/05 15:54:04;;;;;;;6.13;1.92;;;;;;;;;;5060352;28;20269;-63
2022/09/05 15:56:37;;;;;;;6.93;1.92;;;;;;;;;;5060752;28;20207;-63
2022/09/05 15:59:09;;;;;;;7.18;2.15;;;;;;;;;;5060510;28;20283;-63
2022/09/05 16:01:37;;;;;;;6.63;2.33;;;;;;;;;;5060462;28;20226;-62
2022/09/05 16:04:26;;;;;;;6.63;2.00;;;;;;;;;;5060669;28;20313;-62
2022/09/05 16:07:17;;;;;;;5.25;1.88;;;;;;;;;;5060367;28;20238;-62
2022/09/05 16:10:06;;;;;;;6.68;1.92;;;;;;;;;;5060474;28;20376;-63
2022/09/05 16:12:55;;;;;;;6.20;2.25;;;;;;;;;;5060444;28;20301;-63
2022/09/05 16:15:27;;;;;;;4.88;1.95;;;;;;;;;;5060153;28;20593;-63
2022/09/05 16:18:17;;;;;;;8.98;2.50;;;;;;;;;;5044502;28;20210;-61